Time;durP1;ratioP1;P1;durP2;ratioP2;P2;SDS_P1;SDS_P2;PMS_P1;PMS_P2;Temp;Humidity;BMP_temperature;BMP_pressure;BME280_temperature;BME280_humidity;BME280_pressure;Samples;Min_cycle;Max_cycle;Signal;HPM_P1;HPM_P2
2021/09/01 00:00:11;;;;;;;7.38;5.70;;;15.30;94.10;;;;;;4892309;29;20096;-91
2021/09/01 00:02:38;;;;;;;8.40;6.95;;;15.40;94.20;;;;;;4897886;29;20061;-92
2021/09/01 00:05:04;;;;;;;9.35;7.88;;;15.30;94.30;;;;;;4913863;29;20041;-91
2021/09/01 00:07:30;;;;;;;8.25;7.18;;;15.30;94.50;;;;;;4895558;29;20101;-91
2021/09/01 00:09:56;;;;;;;8.60;7.18;;;15.30;94.40;;;;;;4895791;29;20025;-91
2021/09/01 00:12:22;;;;;;;10.85;8.45;;;15.30;94.40;;;;;;4897981;29;20029;-91
2021/09/01 00:14:47;;;;;;;13.52;8.38;;;15.30;94.60;;;;;;4916611;29;20044;-91
2021/09/01 00:17:13;;;;;;;12.15;8.80;;;15.30;94.70;;;;;;4898618;29;20033;-90
2021/09/01 00:19:39;;;;;;;11.32;8.55;;;15.30;94.70;;;;;;4893181;29;20028;-91
2021/09/01 00:22:04;;;;;;;12.88;9.65;;;15.20;94.60;;;;;;4893031;29;20028;-91
2021/09/01 00:24:30;;;;;;;14.60;9.02;;;15.20;94.90;;;;;;4891935;29;20532;-91
2021/09/01 00:26:56;;;;;;;13.98;9.10;;;15.20;94.90;;;;;;4889736;29;20520;-91
2021/09/01 00:29:22;;;;;;;14.60;9.68;;;15.10;94.90;;;;;;4889475;29;20495;-91
2021/09/01 00:31:47;;;;;;;15.77;10.10;;;15.10;95.00;;;;;;4889223;29;20036;-91
2021/09/01 00:34:15;;;;;;;16.45;9.55;;;15.10;95.10;;;;;;4889819;29;20029;-90
2021/09/01 00:36:41;;;;;;;16.55;9.82;;;15.10;95.10;;;;;;4905185;29;20037;-91
2021/09/01 00:39:07;;;;;;;14.10;8.85;;;15.10;95.10;;;;;;4888926;29;20067;-91
2021/09/01 00:41:32;;;;;;;12.38;8.55;;;15.00;95.20;;;;;;4889168;29;20123;-90
2021/09/01 00:44:16;;;;;;;13.02;8.32;;;15.00;95.40;;;;;;4904969;29;20033;-91
2021/09/01 00:46:42;;;;;;;8.43;6.07;;;15.00;95.40;;;;;;4906755;29;20469;-91
2021/09/01 00:49:08;;;;;;;9.20;6.68;;;14.90;95.50;;;;;;4888814;29;20039;-91
2021/09/01 00:51:34;;;;;;;7.20;5.28;;;14.90;95.50;;;;;;4889258;29;20053;-91
2021/09/01 00:53:59;;;;;;;7.50;5.15;;;14.90;95.60;;;;;;4888596;29;20116;-91
2021/09/01 00:56:25;;;;;;;8.13;6.65;;;14.90;95.80;;;;;;4888766;29;20041;-91
2021/09/01 00:58:51;;;;;;;8.18;5.97;;;14.90;95.90;;;;;;4888313;29;20029;-91
2021/09/01 01:01:17;;;;;;;9.27;6.80;;;14.90;95.80;;;;;;4888667;29;20428;-91
2021/09/01 01:03:47;;;;;;;8.73;6.00;;;14.90;95.90;;;;;;4891467;29;20036;-91
2021/09/01 01:06:14;;;;;;;6.13;5.03;;;14.80;95.90;;;;;;4892278;29;20040;-91
2021/09/01 01:08:39;;;;;;;6.20;4.82;;;14.80;96.00;;;;;;4890144;29;20029;-90
2021/09/01 01:11:11;;;;;;;7.30;5.57;;;14.80;96.00;;;;;;4887494;29;20037;-91
2021/09/01 01:13:37;;;;;;;6.38;5.38;;;14.80;96.20;;;;;;4888005;29;20029;-91
2021/09/01 01:16:03;;;;;;;6.22;4.65;;;14.80;96.30;;;;;;4888176;29;20037;-91
2021/09/01 01:18:29;;;;;;;6.80;5.55;;;14.70;96.30;;;;;;4887453;29;20024;-90
2021/09/01 01:20:55;;;;;;;7.03;5.13;;;14.70;96.50;;;;;;4887741;29;20052;-91
2021/09/01 01:23:24;;;;;;;5.70;4.68;;;14.70;96.50;;;;;;4888853;29;20149;-91
2021/09/01 01:25:51;;;;;;;10.35;4.93;;;14.70;96.50;;;;;;4887880;29;20034;-91
2021/09/01 01:28:17;;;;;;;6.43;5.35;;;14.60;96.70;;;;;;4904962;29;20028;-91
2021/09/01 01:30:43;;;;;;;7.25;5.43;;;14.60;96.70;;;;;;4887892;29;20036;-91
2021/09/01 01:33:09;;;;;;;7.50;5.32;;;14.60;96.80;;;;;;4888126;29;20421;-91
2021/09/01 01:35:37;;;;;;;6.80;5.63;;;14.60;96.90;;;;;;4887464;29;20036;-91
2021/09/01 01:38:06;;;;;;;5.85;5.18;;;14.60;97.00;;;;;;4887334;29;20051;-91
2021/09/01 01:40:34;;;;;;;9.82;5.18;;;14.50;97.00;;;;;;4888127;29;20048;-91
2021/09/01 01:43:00;;;;;;;8.05;6.15;;;14.50;97.20;;;;;;4888862;29;20028;-91
2021/09/01 01:45:32;;;;;;;10.68;6.88;;;14.50;97.30;;;;;;4888230;29;20048;-91
2021/09/01 01:47:59;;;;;;;9.00;6.80;;;14.50;97.20;;;;;;4905302;29;20039;-91
2021/09/01 01:50:25;;;;;;;10.70;7.03;;;14.50;97.40;;;;;;4889186;29;20033;-91
2021/09/01 01:52:50;;;;;;;9.57;7.15;;;14.40;97.50;;;;;;4905549;29;20495;-91
2021/09/01 01:55:16;;;;;;;8.90;7.28;;;14.40;97.70;;;;;;4905235;29;20032;-91
2021/09/01 01:57:42;;;;;;;10.35;7.03;;;14.40;97.60;;;;;;4905520;29;20029;-91
2021/09/01 02:00:08;;;;;;;10.20;7.55;;;14.40;97.80;;;;;;4889175;29;20039;-91
2021/09/01 02:02:34;;;;;;;7.93;6.13;;;14.30;98.00;;;;;;4889432;29;20480;-90
2021/09/01 02:05:00;;;;;;;8.98;6.50;;;14.30;98.10;;;;;;4888821;29;20076;-91
2021/09/01 02:07:27;;;;;;;8.57;5.82;;;14.30;98.10;;;;;;4890580;29;20035;-91
2021/09/01 02:09:53;;;;;;;9.07;6.50;;;14.30;98.20;;;;;;4906022;29;20032;-91
2021/09/01 02:12:19;;;;;;;9.77;6.28;;;14.30;98.30;;;;;;4905596;29;20033;-91
2021/09/01 02:14:45;;;;;;;6.32;5.50;;;14.20;98.20;;;;;;4888593;29;20040;-91
2021/09/01 02:17:11;;;;;;;9.10;6.00;;;14.20;98.20;;;;;;4889561;29;20032;-91
2021/09/01 02:19:37;;;;;;;6.72;5.45;;;14.20;98.20;;;;;;4905851;29;20092;-91
2021/09/01 02:22:03;;;;;;;6.72;5.40;;;14.20;98.20;;;;;;4905255;29;20247;-91
2021/09/01 02:24:29;;;;;;;6.57;4.70;;;14.20;98.20;;;;;;4890296;29;20061;-91
2021/09/01 02:26:55;;;;;;;6.60;4.72;;;14.20;98.20;;;;;;4889799;29;20029;-90
2021/09/01 02:29:21;;;;;;;6.00;4.72;;;14.10;98.20;;;;;;4888808;29;20040;-90
2021/09/01 02:31:46;;;;;;;5.78;4.40;;;14.10;98.30;;;;;;4888200;29;20032;-91
2021/09/01 02:34:12;;;;;;;9.88;3.83;;;14.10;98.20;;;;;;4890235;29;20101;-91
2021/09/01 02:36:38;;;;;;;6.82;4.53;;;14.10;98.30;;;;;;4909577;29;20040;-90
2021/09/01 02:39:04;;;;;;;4.88;4.05;;;14.10;98.30;;;;;;4892785;29;20035;-91
2021/09/01 02:41:30;;;;;;;5.72;3.92;;;14.00;98.30;;;;;;4893219;29;20025;-91
2021/09/01 02:43:56;;;;;;;5.43;3.95;;;14.00;98.30;;;;;;4908330;29;20028;-90
2021/09/01 02:46:22;;;;;;;6.45;4.30;;;14.00;98.40;;;;;;4892341;29;20029;-91
2021/09/01 02:48:49;;;;;;;5.38;4.38;;;14.00;98.40;;;;;;4909456;29;20029;-91
2021/09/01 02:51:15;;;;;;;4.47;4.00;;;14.00;98.70;;;;;;4909047;29;20080;-90
2021/09/01 02:53:41;;;;;;;5.18;4.55;;;14.00;98.40;;;;;;4892380;29;20088;-91
2021/09/01 02:56:07;;;;;;;6.38;4.80;;;14.00;98.70;;;;;;4892902;29;20041;-91
2021/09/01 02:58:33;;;;;;;6.57;4.47;;;14.00;98.70;;;;;;4891410;29;20039;-91
2021/09/01 03:00:59;;;;;;;6.10;4.03;;;13.90;98.60;;;;;;4890239;29;20424;-91
2021/09/01 03:03:24;;;;;;;9.50;4.95;;;13.90;98.60;;;;;;4893815;29;20028;-91
2021/09/01 03:05:50;;;;;;;4.78;3.75;;;13.90;98.70;;;;;;4893000;29;20033;-91
2021/09/01 03:08:16;;;;;;;5.35;4.22;;;13.90;98.70;;;;;;4893155;29;20028;-91
2021/09/01 03:10:42;;;;;;;5.75;4.15;;;13.90;98.80;;;;;;4911178;29;20029;-91
2021/09/01 03:13:08;;;;;;;4.70;3.75;;;13.90;98.80;;;;;;4897499;29;20033;-90
2021/09/01 03:15:34;;;;;;;3.83;3.45;;;13.90;98.80;;;;;;4911552;29;20092;-91
2021/09/01 03:17:59;;;;;;;5.78;3.20;;;13.90;98.80;;;;;;4896667;29;20097;-91
2021/09/01 03:20:25;;;;;;;5.20;4.07;;;13.90;98.80;;;;;;4895675;29;20040;-91
2021/09/01 03:22:51;;;;;;;6.05;3.55;;;13.90;98.80;;;;;;4895356;29;20481;-91
2021/09/01 03:25:17;;;;;;;4.50;3.88;;;13.90;98.90;;;;;;4913326;29;20067;-91
2021/09/01 03:27:43;;;;;;;10.85;4.40;;;14.00;99.00;;;;;;4892092;29;20028;-91
2021/09/01 03:30:09;;;;;;;4.88;3.97;;;14.00;98.90;;;;;;4891044;29;20029;-91
2021/09/01 03:32:35;;;;;;;5.07;3.72;;;14.00;98.90;;;;;;4910383;29;20032;-90
2021/09/01 03:35:04;;;;;;;5.35;4.47;;;14.00;98.90;;;;;;4914945;29;20172;-90
2021/09/01 03:37:30;;;;;;;4.90;4.05;;;14.00;98.80;;;;;;4898192;29;20035;-91
2021/09/01 03:39:56;;;;;;;5.82;4.70;;;14.10;98.80;;;;;;4893933;29;20025;-90
2021/09/01 03:42:22;;;;;;;5.53;4.03;;;14.10;98.80;;;;;;4894327;29;20113;-90
2021/09/01 03:44:48;;;;;;;7.18;5.07;;;14.10;98.70;;;;;;4894136;29;20032;-90
2021/09/01 03:47:14;;;;;;;5.70;4.35;;;14.20;98.70;;;;;;4893415;29;20032;-91
2021/09/01 03:49:39;;;;;;;5.93;4.28;;;14.30;98.70;;;;;;4894214;29;20033;-91
2021/09/01 03:52:05;;;;;;;5.43;4.32;;;14.30;98.70;;;;;;4892637;29;20072;-90
2021/09/01 03:54:31;;;;;;;6.68;4.43;;;14.30;98.60;;;;;;4893069;29;20059;-90
2021/09/01 03:56:57;;;;;;;9.48;4.65;;;14.40;98.60;;;;;;4893633;29;20044;-90
2021/09/01 03:59:23;;;;;;;8.60;5.10;;;14.40;98.50;;;;;;4895796;29;20118;-91
2021/09/01 04:01:49;;;;;;;5.75;4.32;;;14.50;98.40;;;;;;4894436;29;20060;-91
2021/09/01 04:04:16;;;;;;;7.88;4.60;;;14.60;98.40;;;;;;4894179;29;20036;-90
2021/09/01 04:06:42;;;;;;;4.30;3.88;;;14.60;98.30;;;;;;4912035;29;20032;-91
2021/09/01 04:09:08;;;;;;;3.95;3.53;;;14.80;98.20;;;;;;4892797;29;20035;-90
2021/09/01 04:11:34;;;;;;;4.45;4.00;;;14.80;98.10;;;;;;4893583;29;20096;-91
2021/09/01 04:14:00;;;;;;;6.55;4.45;;;14.90;98.00;;;;;;4894378;29;20029;-90
2021/09/01 04:16:26;;;;;;;4.65;3.88;;;15.00;97.90;;;;;;4895190;29;20039;-91
2021/09/01 04:18:52;;;;;;;5.30;4.18;;;15.10;97.80;;;;;;4895978;29;20028;-91
2021/09/01 04:21:18;;;;;;;4.40;3.97;;;15.20;97.70;;;;;;4895325;29;20028;-91
2021/09/01 04:23:43;;;;;;;5.55;4.32;;;15.30;97.60;;;;;;4894409;29;20088;-90
2021/09/01 04:26:12;;;;;;;7.05;5.13;;;15.40;97.60;;;;;;4911638;29;20473;-91
2021/09/01 04:28:38;;;;;;;6.53;4.93;;;15.50;97.30;;;;;;4892609;29;20103;-91
2021/09/01 04:31:04;;;;;;;6.97;5.28;;;15.60;97.00;;;;;;4893102;29;20029;-91
2021/09/01 04:33:30;;;;;;;6.80;5.40;;;15.70;96.80;;;;;;4893798;29;20436;-91
2021/09/01 04:35:55;;;;;;;5.97;4.95;;;15.80;96.60;;;;;;4909857;29;20076;-91
2021/09/01 04:38:21;;;;;;;6.78;5.32;;;15.90;96.40;;;;;;4892726;29;20124;-90
2021/09/01 04:40:47;;;;;;;7.00;5.20;;;16.00;96.20;;;;;;4892762;29;20029;-92
2021/09/01 04:43:12;;;;;;;6.88;5.28;;;16.10;96.10;;;;;;4893003;29;20492;-90
2021/09/01 04:45:38;;;;;;;5.82;5.22;;;16.20;95.90;;;;;;4909415;29;20028;-91
2021/09/01 04:48:04;;;;;;;7.15;5.70;;;16.30;95.70;;;;;;4892715;29;20029;-90
2021/09/01 04:50:30;;;;;;;6.22;5.57;;;16.50;95.50;;;;;;4892532;29;20067;-90
2021/09/01 04:52:56;;;;;;;7.50;5.32;;;16.60;95.30;;;;;;4891768;29;20029;-91
2021/09/01 04:55:22;;;;;;;6.05;5.45;;;16.60;95.10;;;;;;4890282;29;20120;-92
2021/09/01 04:57:48;;;;;;;6.78;5.53;;;16.70;95.00;;;;;;4892822;29;20035;-91
2021/09/01 05:00:15;;;;;;;7.40;5.88;;;16.80;94.70;;;;;;4891553;29;20067;-91
2021/09/01 05:02:40;;;;;;;5.82;5.18;;;16.90;94.40;;;;;;4892195;29;20294;-92
2021/09/01 05:05:07;;;;;;;5.38;4.75;;;17.00;94.30;;;;;;4892285;29;20065;-91
2021/09/01 05:07:33;;;;;;;5.97;4.53;;;17.10;94.20;;;;;;4906798;29;20032;-91
2021/09/01 05:09:59;;;;;;;5.18;4.68;;;17.20;93.90;;;;;;4888572;29;20029;-91
2021/09/01 05:12:28;;;;;;;7.32;4.57;;;17.30;93.70;;;;;;4905746;29;20029;-91
2021/09/01 05:14:54;;;;;;;5.15;4.65;;;17.30;93.50;;;;;;4890255;29;20039;-90
2021/09/01 05:17:23;;;;;;;5.60;4.55;;;17.40;93.40;;;;;;4891200;29;20029;-91
2021/09/01 05:19:52;;;;;;;5.22;4.43;;;17.60;93.30;;;;;;4890881;29;20123;-91
2021/09/01 05:22:21;;;;;;;5.00;4.50;;;17.70;93.10;;;;;;4894176;29;20092;-91
2021/09/01 05:25:00;;;;;;;6.32;4.05;;;17.90;92.90;;;;;;4892273;29;20039;-91
2021/09/01 05:27:29;;;;;;;5.30;4.32;;;18.20;92.60;;;;;;4890385;29;20040;-91
2021/09/01 05:29:57;;;;;;;5.32;4.40;;;18.40;92.30;;;;;;4890285;29;20040;-90
2021/09/01 05:32:26;;;;;;;4.53;3.80;;;18.60;91.80;;;;;;4889809;29;20108;-91
2021/09/01 05:34:54;;;;;;;5.53;4.03;;;18.90;91.30;;;;;;4890764;29;20035;-91
2021/09/01 05:37:21;;;;;;;4.20;3.70;;;19.10;90.90;;;;;;4893796;29;20031;-91
2021/09/01 05:39:49;;;;;;;5.13;4.35;;;19.40;90.30;;;;;;4899412;29;20032;-91
2021/09/01 05:42:19;;;;;;;5.05;4.55;;;19.60;90.00;;;;;;4902937;29;20112;-92
2021/09/01 05:44:46;;;;;;;4.93;4.43;;;19.80;89.40;;;;;;4901501;29;20065;-91
2021/09/01 05:47:17;;;;;;;5.25;4.05;;;20.00;88.50;;;;;;4896988;29;20033;-91
2021/09/01 05:49:48;;;;;;;6.35;4.18;;;20.20;87.80;;;;;;4911984;29;20049;-91
2021/09/01 05:52:16;;;;;;;5.05;4.55;;;20.30;86.30;;;;;;4908500;29;20406;-91
2021/09/01 05:54:44;;;;;;;5.47;4.15;;;20.40;85.50;;;;;;4891436;29;20036;-91
2021/09/01 05:57:16;;;;;;;4.57;3.92;;;20.40;84.40;;;;;;4890971;29;20055;-90
2021/09/01 05:59:55;;;;;;;4.10;3.60;;;20.50;84.40;;;;;;4888667;29;20040;-91
2021/09/01 06:02:27;;;;;;;4.18;3.78;;;20.50;84.40;;;;;;4907806;29;20055;-91
2021/09/01 06:04:55;;;;;;;4.93;4.20;;;20.60;84.20;;;;;;4893472;29;20033;-91
2021/09/01 06:07:24;;;;;;;5.10;3.83;;;20.80;83.80;;;;;;4890418;29;20622;-91
2021/09/01 06:09:52;;;;;;;4.47;3.70;;;20.90;83.10;;;;;;4889598;29;20029;-91
2021/09/01 06:12:22;;;;;;;5.03;3.97;;;21.00;82.50;;;;;;4893153;29;20032;-91
2021/09/01 06:14:48;;;;;;;4.15;3.40;;;21.20;82.20;;;;;;4891326;29;20035;-91
2021/09/01 06:17:14;;;;;;;4.20;3.80;;;21.30;81.80;;;;;;4888916;29;20032;-92
2021/09/01 06:19:40;;;;;;;3.75;3.45;;;21.40;81.10;;;;;;4871518;29;20418;-91
2021/09/01 06:22:06;;;;;;;3.97;3.58;;;21.60;80.50;;;;;;4865248;29;20440;-91
2021/09/01 06:24:33;;;;;;;3.25;2.95;;;21.70;79.60;;;;;;4871613;29;20029;-91
2021/09/01 06:27:00;;;;;;;7.07;3.88;;;21.80;79.00;;;;;;4873089;29;20103;-91
2021/09/01 06:29:27;;;;;;;3.35;2.92;;;21.80;78.40;;;;;;4865465;29;20089;-92
2021/09/01 06:31:53;;;;;;;3.53;3.03;;;21.90;78.10;;;;;;4870042;29;20033;-91
2021/09/01 06:34:19;;;;;;;3.63;2.90;;;22.00;77.60;;;;;;4873282;29;20052;-91
2021/09/01 06:36:48;;;;;;;4.18;3.20;;;22.20;77.20;;;;;;4874049;29;20081;-92
2021/09/01 06:39:14;;;;;;;3.20;2.80;;;22.30;77.00;;;;;;4868728;29;20025;-93
2021/09/01 06:41:40;;;;;;;5.15;2.80;;;22.40;76.80;;;;;;4867306;29;20032;-92
2021/09/01 06:44:06;;;;;;;3.40;3.10;;;22.50;76.10;;;;;;4866473;29;20469;-92
2021/09/01 06:46:32;;;;;;;3.17;2.75;;;22.70;75.50;;;;;;4890503;29;20087;-93
2021/09/01 06:48:58;;;;;;;4.90;4.03;;;22.80;74.80;;;;;;4888664;29;20053;-93
2021/09/01 06:51:24;;;;;;;3.92;3.35;;;22.90;74.20;;;;;;4872793;29;20022;-93
2021/09/01 06:53:50;;;;;;;3.08;2.88;;;23.00;73.50;;;;;;4876541;29;20136;-93
2021/09/01 06:56:20;;;;;;;3.38;2.92;;;23.10;72.90;;;;;;4867536;29;20044;-94
2021/09/01 06:58:50;;;;;;;3.55;3.20;;;23.20;72.80;;;;;;4861891;29;20029;-94
2021/09/01 07:01:21;;;;;;;4.10;3.58;;;23.30;72.60;;;;;;4854516;29;20053;-94
2021/09/01 07:03:53;;;;;;;4.55;4.00;;;23.40;71.40;;;;;;4860500;29;20085;-94
2021/09/01 07:06:21;;;;;;;4.05;3.65;;;23.40;70.60;;;;;;4857971;29;20025;-92
2021/09/01 07:08:50;;;;;;;4.88;3.88;;;23.40;70.30;;;;;;4860950;29;20037;-94
2021/09/01 07:11:18;;;;;;;3.42;3.13;;;23.50;69.60;;;;;;4854230;29;20141;-93
2021/09/01 07:13:48;;;;;;;3.58;3.28;;;23.40;69.40;;;;;;4850215;29;20129;-96
2021/09/01 07:16:18;;;;;;;3.42;3.13;;;23.50;69.10;;;;;;4863689;29;20085;-94
2021/09/01 07:18:44;;;;;;;3.30;3.00;;;23.50;68.90;;;;;;4862969;29;20033;-94
2021/09/01 07:21:10;;;;;;;3.25;2.97;;;23.60;68.90;;;;;;4831377;29;20060;-95
2021/09/01 07:23:40;;;;;;;3.85;3.38;;;23.60;67.40;;;;;;4862573;29;20500;-93
2021/09/01 07:26:09;;;;;;;4.25;3.15;;;23.50;66.60;;;;;;4860831;29;20021;-93
2021/09/01 07:28:49;;;;;;;3.40;3.10;;;23.50;65.90;;;;;;4872845;29;20053;-93
2021/09/01 07:31:35;;;;;;;;;;;;;;;;;;;;;
2021/09/01 07:34:18;;;;;;;4.70;3.63;;;23.50;66.20;;;;;;4874872;29;20092;-95
2021/09/01 07:36:45;;;;;;;4.93;3.90;;;23.60;66.90;;;;;;4882337;29;20060;-94
2021/09/01 07:39:11;;;;;;;4.47;4.00;;;23.60;66.10;;;;;;4882308;29;20144;-93
2021/09/01 07:41:37;;;;;;;4.63;4.10;;;23.70;65.90;;;;;;4870880;29;20441;-93
2021/09/01 07:44:10;;;;;;;3.55;3.25;;;23.70;65.50;;;;;;4869719;29;20029;-93
2021/09/01 07:46:40;;;;;;;4.53;3.78;;;23.80;64.80;;;;;;4871700;29;20036;-94
2021/09/01 07:49:06;;;;;;;4.28;3.40;;;23.80;63.50;;;;;;4874635;29;20044;-92
2021/09/01 07:55:14;;;;;;;4.72;3.95;;;23.80;63.50;;;;;;4870560;29;20428;-92
2021/09/01 07:57:41;;;;;;;4.22;3.83;;;23.90;62.80;;;;;;4878726;29;20079;-92
2021/09/01 08:00:09;;;;;;;3.35;3.05;;;23.90;63.00;;;;;;4877222;29;20033;-93
2021/09/01 08:02:37;;;;;;;3.50;3.20;;;24.00;62.90;;;;;;4872538;29;20104;-93
2021/09/01 08:05:04;;;;;;;3.22;2.70;;;24.10;63.20;;;;;;4861670;29;20029;-91
2021/09/01 08:07:30;;;;;;;4.38;3.38;;;24.20;61.90;;;;;;4865919;29;20353;-92
2021/09/01 08:09:56;;;;;;;5.53;3.70;;;24.30;61.50;;;;;;4868282;29;20056;-92
2021/09/01 08:12:22;;;;;;;3.30;3.00;;;24.30;61.50;;;;;;4869700;29;20032;-91
2021/09/01 08:14:51;;;;;;;3.55;2.97;;;24.30;60.70;;;;;;4855726;29;20025;-94
2021/09/01 08:17:22;;;;;;;5.22;3.53;;;24.30;60.90;;;;;;4891378;29;20032;-94
2021/09/01 08:19:51;;;;;;;4.75;3.25;;;24.30;60.70;;;;;;4869836;29;20044;-93
2021/09/01 08:22:18;;;;;;;3.53;2.70;;;24.40;60.20;;;;;;4876414;29;20161;-93
2021/09/01 08:24:51;;;;;;;7.63;3.42;;;24.50;59.70;;;;;;4879894;29;20090;-92
2021/09/01 08:27:20;;;;;;;3.15;2.80;;;24.60;60.30;;;;;;4888597;29;20036;-91
2021/09/01 08:29:48;;;;;;;2.75;2.47;;;24.60;60.00;;;;;;4870342;29;20370;-91
2021/09/01 08:32:17;;;;;;;3.20;2.90;;;24.80;59.80;;;;;;4883412;29;20586;-92
2021/09/01 08:34:45;;;;;;;5.03;4.00;;;24.90;59.40;;;;;;4864528;29;20112;-91
2021/09/01 08:37:11;;;;;;;5.72;3.20;;;25.10;59.10;;;;;;4863569;29;20041;-90
2021/09/01 08:39:46;;;;;;;2.95;2.72;;;25.30;59.20;;;;;;4848483;29;20040;-91
2021/09/01 08:42:13;;;;;;;3.25;2.97;;;25.40;58.10;;;;;;4870610;29;20037;-93
2021/09/01 08:44:44;;;;;;;2.58;2.38;;;25.50;57.80;;;;;;4863092;29;20032;-95
2021/09/01 08:47:11;;;;;;;2.95;2.70;;;25.70;58.10;;;;;;4870607;29;20045;-93
2021/09/01 08:49:40;;;;;;;2.85;2.45;;;25.90;57.90;;;;;;4870323;29;20033;-94
2021/09/01 08:52:08;;;;;;;3.05;2.75;;;26.10;57.50;;;;;;4867198;29;20096;-93
2021/09/01 08:54:34;;;;;;;4.28;3.13;;;26.30;57.50;;;;;;4872411;29;20048;-93
2021/09/01 08:57:00;;;;;;;6.10;3.00;;;26.50;56.90;;;;;;4870565;29;20430;-93
2021/09/01 08:59:26;;;;;;;3.38;3.00;;;26.60;56.40;;;;;;4871301;29;20033;-93
2021/09/01 09:01:55;;;;;;;3.35;2.92;;;26.60;55.90;;;;;;4869546;29;20063;-93
2021/09/01 09:04:25;;;;;;;3.38;2.92;;;26.70;55.80;;;;;;4868683;29;20056;-93
2021/09/01 09:07:18;;;;;;;3.08;2.78;;;26.60;53.40;;;;;;4886258;29;20085;-92
2021/09/01 09:10:43;;;;;;;;;;;;;;;;;;;;;
2021/09/01 09:48:44;;;;;;;;;;;;;;;;;;;;;
2021/09/01 10:20:32;;;;;;;;;;;;;;;;;;;;;
2021/09/01 11:32:35;;;;;;;2.72;2.53;;;26.70;54.90;;;;;;6046909;23;20067;-92
2021/09/01 11:36:02;;;;;;;;;;;;;;;;;;;;;
2021/09/01 22:51:24;;;;;;;7.53;5.22;;;16.20;99.90;;;;;;6240542;22;19915;-90
2021/09/01 22:53:50;;;;;;;5.07;4.57;;;16.10;99.90;;;;;;6250924;22;20007;-90
2021/09/01 22:56:16;;;;;;;6.82;5.43;;;16.10;99.90;;;;;;6250557;22;20027;-90
2021/09/01 22:58:42;;;;;;;7.53;5.47;;;16.10;99.90;;;;;;6250688;22;20008;-90
2021/09/01 23:01:07;;;;;;;5.75;5.10;;;16.20;99.90;;;;;;6251257;22;19996;-89
2021/09/01 23:03:33;;;;;;;6.32;5.40;;;16.20;99.90;;;;;;6251593;22;20073;-90
2021/09/01 23:05:59;;;;;;;9.70;5.53;;;16.20;99.90;;;;;;6250904;22;20011;-89
2021/09/01 23:08:25;;;;;;;5.95;5.35;;;16.20;99.90;;;;;;6250167;22;20008;-90
2021/09/01 23:10:51;;;;;;;8.82;6.20;;;16.20;99.90;;;;;;6250196;22;20086;-90
2021/09/01 23:13:16;;;;;;;6.75;6.05;;;16.20;99.90;;;;;;6250271;22;19996;-89
2021/09/01 23:15:42;;;;;;;6.40;5.78;;;16.20;99.90;;;;;;6249997;22;19999;-89
2021/09/01 23:18:08;;;;;;;6.00;5.40;;;16.20;99.90;;;;;;6277865;22;20006;-89
2021/09/01 23:20:34;;;;;;;6.53;5.68;;;16.30;99.90;;;;;;6250530;22;20003;-90
2021/09/01 23:22:59;;;;;;;7.95;5.97;;;16.30;99.90;;;;;;6250584;22;19999;-90
2021/09/01 23:25:26;;;;;;;7.90;6.78;;;16.30;99.90;;;;;;6259855;22;20010;-90
2021/09/01 23:27:52;;;;;;;7.55;6.82;;;16.30;99.90;;;;;;6263806;22;20062;-89
2021/09/01 23:30:18;;;;;;;6.88;6.05;;;16.30;99.90;;;;;;6288283;22;20045;-90
2021/09/01 23:32:43;;;;;;;8.38;6.60;;;16.30;99.90;;;;;;6251539;22;20000;-89
2021/09/01 23:35:10;;;;;;;8.20;7.38;;;16.30;99.90;;;;;;6250563;22;20070;-89
2021/09/01 23:37:38;;;;;;;7.57;6.78;;;16.30;99.90;;;;;;6250120;22;20004;-89
2021/09/01 23:40:04;;;;;;;7.65;6.63;;;16.30;99.90;;;;;;6250129;22;20000;-90
2021/09/01 23:42:30;;;;;;;7.70;6.90;;;16.30;99.90;;;;;;6250240;22;20000;-89
2021/09/01 23:44:56;;;;;;;9.43;6.68;;;16.30;99.90;;;;;;6250602;22;20011;-89
2021/09/01 23:47:22;;;;;;;7.25;6.55;;;16.30;99.90;;;;;;6249698;22;20012;-89
2021/09/01 23:49:48;;;;;;;8.05;6.72;;;16.30;99.90;;;;;;6249944;22;19999;-90
2021/09/01 23:52:14;;;;;;;11.15;6.68;;;16.30;99.90;;;;;;6249840;22;20093;-90
2021/09/01 23:54:41;;;;;;;7.82;6.95;;;16.30;99.90;;;;;;6251661;22;19996;-89
2021/09/01 23:57:07;;;;;;;7.18;6.32;;;16.40;99.90;;;;;;6251700;22;20094;-90
2021/09/01 23:59:34;;;;;;;8.25;7.18;;;16.30;99.90;;;;;;6251785;22;20031;-90
